Time;durP1;ratioP1;P1;durP2;ratioP2;P2;SDS_P1;SDS_P2;PMS_P1;PMS_P2;Temp;Humidity;BMP_temperature;BMP_pressure;BME280_temperature;BME280_humidity;BME280_pressure;Samples;Min_cycle;Max_cycle;Signal;HPM_P1;HPM_P2
2024/01/20 00:00:38;;;;;;;12.37;4.17;;;;;;;;;;10490048;28;20203;-66
2024/01/20 00:05:38;;;;;;;8.43;3.80;;;;;;;;;;10496972;28;20196;-67
2024/01/20 00:10:39;;;;;;;8.80;3.70;;;;;;;;;;10496797;28;20241;-66
2024/01/20 00:15:39;;;;;;;14.93;4.53;;;;;;;;;;10496345;28;20201;-67
2024/01/20 00:20:39;;;;;;;5.70;3.27;;;;;;;;;;10496683;28;20192;-68
2024/01/20 00:25:40;;;;;;;9.03;3.53;;;;;;;;;;10495915;28;20210;-67
2024/01/20 00:30:40;;;;;;;11.53;3.83;;;;;;;;;;10496314;28;20480;-68
2024/01/20 00:35:44;;;;;;;7.10;3.03;;;;;;;;;;10495740;28;20207;-67
2024/01/20 00:40:44;;;;;;;9.53;3.30;;;;;;;;;;10494535;28;20195;-67
2024/01/20 00:45:45;;;;;;;8.20;4.50;;;;;;;;;;10495596;28;20294;-68
2024/01/20 00:50:45;;;;;;;7.27;2.17;;;;;;;;;;10495037;28;20994;-68
2024/01/20 00:55:46;;;;;;;7.77;4.00;;;;;;;;;;10495152;28;20202;-67
2024/01/20 01:00:46;;;;;;;17.00;4.13;;;;;;;;;;10495113;28;20191;-67
2024/01/20 01:05:46;;;;;;;5.00;2.90;;;;;;;;;;10494974;28;20191;-67
2024/01/20 01:10:46;;;;;;;8.07;3.23;;;;;;;;;;10494281;28;20227;-66
2024/01/20 01:15:46;;;;;;;14.90;3.67;;;;;;;;;;10493678;28;20525;-68
2024/01/20 01:20:46;;;;;;;8.97;4.37;;;;;;;;;;10494191;28;20206;-67
2024/01/20 01:25:47;;;;;;;7.37;3.30;;;;;;;;;;10493461;28;20192;-67
2024/01/20 01:30:47;;;;;;;7.27;3.23;;;;;;;;;;10493576;28;20218;-67
2024/01/20 01:35:47;;;;;;;10.67;3.30;;;;;;;;;;10493249;28;20210;-68
2024/01/20 01:40:48;;;;;;;7.37;3.00;;;;;;;;;;10493314;28;20618;-68
2024/01/20 01:45:48;;;;;;;9.43;3.70;;;;;;;;;;10492397;28;20187;-67
2024/01/20 01:50:49;;;;;;;9.20;3.53;;;;;;;;;;10492588;28;20215;-67
2024/01/20 01:55:50;;;;;;;11.23;3.53;;;;;;;;;;10492552;28;20452;-68
2024/01/20 02:00:51;;;;;;;4.37;2.47;;;;;;;;;;10492186;28;20175;-67
2024/01/20 02:05:51;;;;;;;5.70;3.03;;;;;;;;;;10491944;28;20190;-66
2024/01/20 02:10:51;;;;;;;8.53;3.87;;;;;;;;;;10491964;28;20209;-67
2024/01/20 02:15:51;;;;;;;9.33;3.40;;;;;;;;;;10492221;28;20472;-67
2024/01/20 02:20:52;;;;;;;8.60;3.10;;;;;;;;;;10491644;28;20441;-68
2024/01/20 02:25:53;;;;;;;7.23;3.03;;;;;;;;;;10488371;28;20191;-67
2024/01/20 02:30:53;;;;;;;9.63;3.53;;;;;;;;;;10491572;28;20655;-68
2024/01/20 02:35:53;;;;;;;7.23;3.93;;;;;;;;;;10491460;28;20191;-67
2024/01/20 02:40:53;;;;;;;8.67;2.57;;;;;;;;;;10491263;28;20255;-67
2024/01/20 02:45:54;;;;;;;6.67;3.30;;;;;;;;;;10490898;28;20707;-67
2024/01/20 02:50:54;;;;;;;6.40;3.23;;;;;;;;;;10491673;28;20588;-68
2024/01/20 02:55:54;;;;;;;6.63;2.50;;;;;;;;;;10492347;28;20259;-68
2024/01/20 03:00:54;;;;;;;5.87;3.07;;;;;;;;;;10493880;28;20189;-66
2024/01/20 03:05:54;;;;;;;8.87;2.70;;;;;;;;;;10491185;28;20583;-67
2024/01/20 03:10:54;;;;;;;6.27;3.67;;;;;;;;;;10490682;28;20284;-67
2024/01/20 03:15:55;;;;;;;6.63;2.60;;;;;;;;;;10490090;28;20203;-68
2024/01/20 03:20:55;;;;;;;5.60;3.20;;;;;;;;;;10490160;28;20190;-66
2024/01/20 03:25:55;;;;;;;6.00;3.00;;;;;;;;;;10490082;28;20198;-68
2024/01/20 03:30:55;;;;;;;6.73;2.37;;;;;;;;;;10490083;28;20717;-68
2024/01/20 03:35:55;;;;;;;6.50;3.70;;;;;;;;;;10490707;28;20194;-68
2024/01/20 03:40:55;;;;;;;6.83;2.57;;;;;;;;;;10497638;28;20195;-68
2024/01/20 03:45:56;;;;;;;6.33;3.60;;;;;;;;;;10497350;28;20359;-69
2024/01/20 03:50:56;;;;;;;4.83;2.97;;;;;;;;;;10496945;28;20473;-68
2024/01/20 03:55:56;;;;;;;9.70;3.30;;;;;;;;;;10497041;28;20457;-67
2024/01/20 04:00:56;;;;;;;4.37;2.90;;;;;;;;;;10497170;28;20189;-69
2024/01/20 04:05:56;;;;;;;9.00;3.00;;;;;;;;;;10497041;28;20211;-67
2024/01/20 04:10:57;;;;;;;4.20;3.03;;;;;;;;;;10496401;28;20599;-67
2024/01/20 04:15:57;;;;;;;9.37;2.87;;;;;;;;;;10496689;28;20207;-68
2024/01/20 04:20:57;;;;;;;5.73;2.83;;;;;;;;;;10496670;28;20451;-66
2024/01/20 04:25:57;;;;;;;5.77;2.90;;;;;;;;;;10496210;28;20254;-68
2024/01/20 04:30:57;;;;;;;7.83;3.67;;;;;;;;;;10496255;28;20481;-68
2024/01/20 04:35:58;;;;;;;6.60;3.27;;;;;;;;;;10495859;28;20257;-68
2024/01/20 04:40:58;;;;;;;5.07;2.23;;;;;;;;;;10495612;28;20590;-67
2024/01/20 04:45:58;;;;;;;9.87;3.10;;;;;;;;;;10494964;28;20242;-67
2024/01/20 04:50:58;;;;;;;3.17;2.20;;;;;;;;;;10494800;28;20228;-67
2024/01/20 04:56:01;;;;;;;3.87;2.90;;;;;;;;;;10495213;28;20658;-67
2024/01/20 05:01:01;;;;;;;8.60;3.70;;;;;;;;;;10494651;28;20282;-66
2024/01/20 05:06:02;;;;;;;4.53;2.03;;;;;;;;;;10494806;28;20298;-67
2024/01/20 05:11:02;;;;;;;7.90;3.43;;;;;;;;;;10493808;28;20222;-68
2024/01/20 05:16:02;;;;;;;6.60;3.17;;;;;;;;;;10494315;28;20199;-68
2024/01/20 05:21:02;;;;;;;6.10;3.07;;;;;;;;;;10494231;28;20742;-68
2024/01/20 05:26:03;;;;;;;3.57;2.57;;;;;;;;;;10493715;28;21960;-67
2024/01/20 05:31:03;;;;;;;6.37;2.50;;;;;;;;;;10493848;28;21070;-68
2024/01/20 05:36:03;;;;;;;5.87;2.70;;;;;;;;;;10493217;28;20465;-68
2024/01/20 05:41:03;;;;;;;4.93;3.00;;;;;;;;;;10493497;28;20433;-67
2024/01/20 05:46:04;;;;;;;6.97;3.27;;;;;;;;;;10492858;28;20238;-68
2024/01/20 05:51:04;;;;;;;6.13;2.60;;;;;;;;;;10493006;28;20223;-68
2024/01/20 05:56:04;;;;;;;12.23;3.47;;;;;;;;;;10492655;28;20602;-68
2024/01/20 06:01:05;;;;;;;8.77;3.47;;;;;;;;;;10491568;28;21022;-68
2024/01/20 06:06:05;;;;;;;6.35;3.03;;;;;;;;;;10492378;28;20230;-68
2024/01/20 06:11:05;;;;;;;4.53;3.00;;;;;;;;;;10492088;28;20231;-67
2024/01/20 06:16:06;;;;;;;6.87;3.07;;;;;;;;;;10492173;28;20203;-67
2024/01/20 06:21:06;;;;;;;5.17;2.73;;;;;;;;;;10491832;28;20245;-68
2024/01/20 06:26:06;;;;;;;7.10;2.90;;;;;;;;;;10491839;28;20207;-66
2024/01/20 06:31:06;;;;;;;5.57;2.80;;;;;;;;;;10491573;28;20535;-68
2024/01/20 06:36:06;;;;;;;4.47;2.67;;;;;;;;;;10491530;28;20207;-67
2024/01/20 06:41:07;;;;;;;6.83;2.80;;;;;;;;;;10491581;28;20184;-68
2024/01/20 06:46:07;;;;;;;5.60;3.17;;;;;;;;;;10491069;28;20253;-68
2024/01/20 06:51:14;;;;;;;42.37;15.57;;;;;;;;;;10491444;28;20245;-68
2024/01/20 06:56:14;;;;;;;5.43;3.00;;;;;;;;;;10490946;28;20223;-67
2024/01/20 07:01:16;;;;;;;10.77;4.00;;;;;;;;;;10491090;28;20266;-68
2024/01/20 07:06:16;;;;;;;14.90;6.90;;;;;;;;;;10490778;28;20770;-67
2024/01/20 07:11:16;;;;;;;14.53;8.20;;;;;;;;;;10494150;28;20237;-67
2024/01/20 07:16:18;;;;;;;9.17;4.30;;;;;;;;;;10499085;28;20453;-67
2024/01/20 07:21:18;;;;;;;11.63;5.53;;;;;;;;;;10498915;28;20194;-68
2024/01/20 07:26:18;;;;;;;10.43;4.70;;;;;;;;;;10498646;28;20210;-68
2024/01/20 07:31:19;;;;;;;30.80;9.53;;;;;;;;;;10498467;28;20211;-69
2024/01/20 07:36:19;;;;;;;8.90;4.70;;;;;;;;;;10497968;28;20287;-67
2024/01/20 07:41:19;;;;;;;7.67;3.47;;;;;;;;;;10498081;28;20179;-68
2024/01/20 07:46:19;;;;;;;8.77;4.30;;;;;;;;;;10497272;28;20317;-68
2024/01/20 07:51:21;;;;;;;15.60;6.60;;;;;;;;;;10497669;28;20309;-68
2024/01/20 07:56:21;;;;;;;10.53;5.07;;;;;;;;;;10497169;28;20203;-69
2024/01/20 08:01:21;;;;;;;11.75;5.13;;;;;;;;;;10497610;28;20191;-70
2024/01/20 08:06:21;;;;;;;38.90;12.47;;;;;;;;;;10496870;28;20256;-69
2024/01/20 08:11:21;;;;;;;25.63;9.23;;;;;;;;;;10496920;28;20218;-69
2024/01/20 08:16:22;;;;;;;8.50;4.13;;;;;;;;;;10496601;28;21002;-68
2024/01/20 08:21:22;;;;;;;3.43;2.67;;;;;;;;;;10495668;28;20531;-69
2024/01/20 08:26:22;;;;;;;31.93;9.47;;;;;;;;;;10496455;28;20983;-69
2024/01/20 08:31:22;;;;;;;125.00;51.33;;;;;;;;;;10495907;28;20294;-69
2024/01/20 08:36:22;;;;;;;9.03;3.50;;;;;;;;;;10495918;28;20245;-67
2024/01/20 08:41:22;;;;;;;7.27;4.70;;;;;;;;;;10495444;28;20202;-67
2024/01/20 08:46:23;;;;;;;6.03;3.70;;;;;;;;;;10495174;28;20234;-66
2024/01/20 08:51:24;;;;;;;3.67;2.27;;;;;;;;;;10495199;28;20697;-69
2024/01/20 08:56:24;;;;;;;4.30;2.87;;;;;;;;;;10495060;28;20207;-68
2024/01/20 09:01:24;;;;;;;7.73;4.57;;;;;;;;;;10495149;28;20199;-67
2024/01/20 09:06:25;;;;;;;7.57;3.63;;;;;;;;;;10494584;28;21083;-68
2024/01/20 09:11:25;;;;;;;7.00;3.40;;;;;;;;;;10494680;28;20655;-66
2024/01/20 09:16:25;;;;;;;10.37;4.00;;;;;;;;;;10494178;28;20285;-69
2024/01/20 09:21:25;;;;;;;5.43;3.40;;;;;;;;;;10494250;28;20283;-69
2024/01/20 09:26:25;;;;;;;8.27;4.37;;;;;;;;;;10493663;28;20219;-68
2024/01/20 09:31:26;;;;;;;5.00;3.20;;;;;;;;;;10493716;28;20211;-67
2024/01/20 09:36:26;;;;;;;20.57;10.50;;;;;;;;;;10493237;28;20261;-67
2024/01/20 09:41:26;;;;;;;3.93;2.77;;;;;;;;;;10493495;28;20194;-67
2024/01/20 09:46:26;;;;;;;5.17;2.87;;;;;;;;;;10492897;28;20254;-67
2024/01/20 09:51:28;;;;;;;7.17;3.80;;;;;;;;;;10492699;28;20723;-67
2024/01/20 09:56:28;;;;;;;5.10;2.73;;;;;;;;;;10492621;28;20235;-66
2024/01/20 10:01:29;;;;;;;5.63;2.90;;;;;;;;;;10492729;28;20249;-67
2024/01/20 10:06:30;;;;;;;3.83;3.03;;;;;;;;;;10492144;28;20598;-67
2024/01/20 10:11:30;;;;;;;5.00;3.27;;;;;;;;;;10491927;28;20211;-67
2024/01/20 10:16:37;;;;;;;6.43;2.87;;;;;;;;;;10492000;28;20324;-67
2024/01/20 10:21:38;;;;;;;3.20;2.50;;;;;;;;;;10491985;28;20187;-67
2024/01/20 10:26:41;;;;;;;6.07;3.37;;;;;;;;;;10491567;28;20689;-68
2024/01/20 10:31:42;;;;;;;4.50;2.67;;;;;;;;;;10491476;28;20222;-67
2024/01/20 10:36:44;;;;;;;4.37;3.13;;;;;;;;;;10491598;28;20207;-70
2024/01/20 10:41:46;;;;;;;5.73;3.27;;;;;;;;;;10487999;28;20739;-68
2024/01/20 10:46:51;;;;;;;2.33;2.13;;;;;;;;;;10490526;28;20287;-70
2024/01/20 10:51:52;;;;;;;3.73;2.80;;;;;;;;;;10491253;28;20227;-69
2024/01/20 10:56:52;;;;;;;5.27;2.60;;;;;;;;;;10490822;28;20695;-70
2024/01/20 11:01:53;;;;;;;4.65;3.40;;;;;;;;;;10491368;28;20193;-70
2024/01/20 11:06:55;;;;;;;4.30;2.80;;;;;;;;;;10490591;28;20226;-69
2024/01/20 11:12:00;;;;;;;6.37;3.53;;;;;;;;;;10490515;28;20231;-71
2024/01/20 11:17:10;;;;;;;6.17;2.87;;;;;;;;;;10490711;28;20215;-71
2024/01/20 11:22:30;;;;;;;7.07;3.53;;;;;;;;;;10489435;28;20191;-71
2024/01/20 11:27:30;;;;;;;5.30;3.03;;;;;;;;;;10489077;28;20242;-72
2024/01/20 11:32:30;;;;;;;6.93;3.87;;;;;;;;;;10490439;28;20260;-72
2024/01/20 11:37:31;;;;;;;6.93;4.03;;;;;;;;;;10490320;28;20835;-73
2024/01/20 11:42:33;;;;;;;3.63;2.80;;;;;;;;;;10490131;28;20184;-73
2024/01/20 11:47:34;;;;;;;5.33;3.20;;;;;;;;;;10489802;28;20595;-73
2024/01/20 11:52:35;;;;;;;5.43;3.57;;;;;;;;;;10490073;28;20195;-74
2024/01/20 11:57:35;;;;;;;5.57;3.50;;;;;;;;;;10491862;28;20264;-74
2024/01/20 12:02:35;;;;;;;6.80;3.27;;;;;;;;;;10497220;28;20998;-74
2024/01/20 12:07:35;;;;;;;6.37;2.90;;;;;;;;;;10496914;28;20210;-75
2024/01/20 12:12:35;;;;;;;4.40;3.13;;;;;;;;;;10496961;28;20718;-73
2024/01/20 12:17:36;;;;;;;7.40;3.83;;;;;;;;;;10497078;28;20305;-74
2024/01/20 12:22:37;;;;;;;4.70;3.13;;;;;;;;;;10496376;28;21071;-71
2024/01/20 12:27:37;;;;;;;6.18;4.07;;;;;;;;;;10496435;28;20293;-73
2024/01/20 12:32:37;;;;;;;5.77;4.13;;;;;;;;;;10496480;28;20205;-71
2024/01/20 12:37:38;;;;;;;6.97;4.00;;;;;;;;;;10495427;28;20219;-72
2024/01/20 12:42:38;;;;;;;7.17;3.90;;;;;;;;;;10495560;28;20639;-72
2024/01/20 12:47:38;;;;;;;7.53;3.43;;;;;;;;;;10494588;28;20238;-72
2024/01/20 12:52:39;;;;;;;5.93;3.20;;;;;;;;;;10495026;28;20440;-72
2024/01/20 12:57:39;;;;;;;8.17;3.10;;;;;;;;;;10493525;28;20261;-70
2024/01/20 13:02:39;;;;;;;5.57;3.57;;;;;;;;;;10495038;28;20691;-71
2024/01/20 13:07:39;;;;;;;7.40;3.97;;;;;;;;;;10493748;28;20530;-71
2024/01/20 13:12:40;;;;;;;7.57;3.70;;;;;;;;;;10493878;28;20225;-72
2024/01/20 13:17:41;;;;;;;6.47;3.57;;;;;;;;;;10493761;28;20692;-71
2024/01/20 13:22:41;;;;;;;4.17;2.97;;;;;;;;;;10494016;28;20223;-72
2024/01/20 13:27:41;;;;;;;7.10;4.10;;;;;;;;;;10493672;28;20210;-72
2024/01/20 13:32:41;;;;;;;4.43;2.60;;;;;;;;;;10493827;28;20595;-72
2024/01/20 13:37:41;;;;;;;7.70;3.97;;;;;;;;;;10493190;28;20226;-72
2024/01/20 13:42:42;;;;;;;5.73;3.27;;;;;;;;;;10493524;28;20190;-72
2024/01/20 13:47:42;;;;;;;5.17;3.10;;;;;;;;;;10488419;28;20238;-72
2024/01/20 13:52:42;;;;;;;8.60;3.90;;;;;;;;;;10488556;28;20191;-71
2024/01/20 13:57:42;;;;;;;23.10;7.53;;;;;;;;;;10490205;28;20215;-71
2024/01/20 14:02:46;;;;;;;25.40;12.13;;;;;;;;;;10492046;28;20191;-70
2024/01/20 14:07:47;;;;;;;21.73;8.77;;;;;;;;;;10488783;28;20231;-70
2024/01/20 14:12:47;;;;;;;7.47;4.43;;;;;;;;;;10490940;28;20205;-71
2024/01/20 14:17:48;;;;;;;6.23;4.23;;;;;;;;;;10491980;28;20226;-69
2024/01/20 14:22:48;;;;;;;31.00;18.90;;;;;;;;;;10491082;28;20718;-70
2024/01/20 14:27:48;;;;;;;6.40;4.30;;;;;;;;;;10491386;28;20222;-69
2024/01/20 14:32:48;;;;;;;10.23;6.20;;;;;;;;;;10491306;28;20198;-71
2024/01/20 14:37:49;;;;;;;5.57;3.80;;;;;;;;;;10491286;28;20492;-70
2024/01/20 14:42:50;;;;;;;8.57;4.73;;;;;;;;;;10491463;28;20187;-69
2024/01/20 14:47:51;;;;;;;6.73;4.00;;;;;;;;;;10491161;28;20235;-68
2024/01/20 14:52:51;;;;;;;11.40;5.43;;;;;;;;;;10491891;28;20194;-68
2024/01/20 14:57:52;;;;;;;9.40;3.63;;;;;;;;;;10491117;28;20252;-68
2024/01/20 15:02:52;;;;;;;5.43;3.70;;;;;;;;;;10491192;28;20286;-68
2024/01/20 15:07:52;;;;;;;5.63;3.30;;;;;;;;;;10490485;28;20280;-67
2024/01/20 15:12:53;;;;;;;4.83;3.00;;;;;;;;;;10490678;28;20563;-68
2024/01/20 15:17:53;;;;;;;4.70;3.10;;;;;;;;;;10490706;28;20662;-67
2024/01/20 15:22:53;;;;;;;4.67;2.77;;;;;;;;;;10490659;28;20188;-68
2024/01/20 15:27:53;;;;;;;4.87;2.67;;;;;;;;;;10490456;28;20211;-67
2024/01/20 15:32:53;;;;;;;5.55;3.45;;;;;;;;;;10494737;28;20614;-67
2024/01/20 15:37:53;;;;;;;5.93;3.30;;;;;;;;;;10493109;28;20283;-66
2024/01/20 15:42:54;;;;;;;5.73;3.47;;;;;;;;;;10493575;28;20202;-67
2024/01/20 15:47:54;;;;;;;15.67;7.33;;;;;;;;;;10493541;28;20275;-66
2024/01/20 15:52:54;;;;;;;3.47;3.07;;;;;;;;;;10492888;28;20188;-67
2024/01/20 15:57:54;;;;;;;8.67;4.73;;;;;;;;;;10491375;28;20468;-67
2024/01/20 16:02:54;;;;;;;13.13;7.67;;;;;;;;;;10493194;28;20207;-67
2024/01/20 16:07:55;;;;;;;7.27;5.33;;;;;;;;;;10492043;28;20230;-67
2024/01/20 16:12:55;;;;;;;15.47;7.13;;;;;;;;;;10502578;28;20195;-68
2024/01/20 16:17:55;;;;;;;4.37;3.03;;;;;;;;;;10493083;28;21119;-67
2024/01/20 16:22:55;;;;;;;4.17;3.63;;;;;;;;;;10495905;28;20649;-67
2024/01/20 16:27:55;;;;;;;5.77;2.83;;;;;;;;;;10496003;28;21059;-67
2024/01/20 16:32:55;;;;;;;6.60;3.97;;;;;;;;;;10496222;28;20569;-68
2024/01/20 16:37:56;;;;;;;5.53;3.83;;;;;;;;;;10496095;28;20235;-67
2024/01/20 16:42:56;;;;;;;9.13;5.90;;;;;;;;;;10495308;28;20195;-68
2024/01/20 16:47:57;;;;;;;39.77;12.63;;;;;;;;;;10495346;28;20245;-67
2024/01/20 16:52:57;;;;;;;7.53;5.43;;;;;;;;;;10495126;28;20574;-67
2024/01/20 16:57:57;;;;;;;6.33;4.20;;;;;;;;;;10495278;28;20207;-68
2024/01/20 17:02:58;;;;;;;4.43;2.90;;;;;;;;;;10494775;28;20528;-68
2024/01/20 17:08:00;;;;;;;8.63;3.87;;;;;;;;;;10494532;28;20780;-68
2024/01/20 17:13:00;;;;;;;5.90;3.50;;;;;;;;;;10494632;28;20665;-67
2024/01/20 17:18:01;;;;;;;9.93;4.27;;;;;;;;;;10491087;28;20305;-68
2024/01/20 17:23:03;;;;;;;5.43;3.50;;;;;;;;;;10489432;28;20188;-68
2024/01/20 17:28:03;;;;;;;7.47;4.23;;;;;;;;;;10493335;28;20262;-67
2024/01/20 17:33:03;;;;;;;9.23;5.17;;;;;;;;;;10493928;28;20226;-68
2024/01/20 17:38:04;;;;;;;7.10;4.20;;;;;;;;;;10493458;28;20219;-69
2024/01/20 17:43:04;;;;;;;3.90;2.80;;;;;;;;;;10493262;28;20290;-68
2024/01/20 17:48:04;;;;;;;4.27;3.20;;;;;;;;;;10492679;28;20500;-69
2024/01/20 17:53:05;;;;;;;6.77;3.40;;;;;;;;;;10492669;28;20191;-68
2024/01/20 17:58:06;;;;;;;4.80;3.33;;;;;;;;;;10491433;28;20595;-68
2024/01/20 18:03:07;;;;;;;4.73;3.13;;;;;;;;;;10492600;28;20679;-67
2024/01/20 18:08:07;;;;;;;5.88;3.28;;;;;;;;;;10492241;28;20229;-67
2024/01/20 18:13:07;;;;;;;9.90;5.53;;;;;;;;;;10492145;28;20554;-68
2024/01/20 18:18:07;;;;;;;32.87;11.27;;;;;;;;;;10492019;28;20203;-67
2024/01/20 18:23:07;;;;;;;48.30;18.83;;;;;;;;;;10491772;28;20191;-68
2024/01/20 18:28:08;;;;;;;12.23;5.90;;;;;;;;;;10491798;28;20219;-68
2024/01/20 18:33:08;;;;;;;4.47;3.27;;;;;;;;;;10491647;28;20211;-67
2024/01/20 18:38:08;;;;;;;4.57;3.37;;;;;;;;;;10491246;28;20203;-67
2024/01/20 18:43:09;;;;;;;12.77;7.20;;;;;;;;;;10491707;28;20179;-68
2024/01/20 18:48:09;;;;;;;17.43;7.30;;;;;;;;;;10490510;28;20326;-68
2024/01/20 18:53:10;;;;;;;10.27;4.90;;;;;;;;;;10491261;28;20187;-68
2024/01/20 18:58:13;;;;;;;9.40;4.97;;;;;;;;;;10490121;28;20306;-67
2024/01/20 19:03:13;;;;;;;8.23;4.30;;;;;;;;;;10491069;28;20217;-67
2024/01/20 19:08:13;;;;;;;9.03;5.37;;;;;;;;;;10496069;28;20250;-67
2024/01/20 19:13:14;;;;;;;27.77;12.23;;;;;;;;;;10499134;28;20183;-67
2024/01/20 19:18:14;;;;;;;13.23;7.43;;;;;;;;;;10499360;28;20209;-68
2024/01/20 19:23:15;;;;;;;11.30;5.50;;;;;;;;;;10499546;28;20198;-68
2024/01/20 19:28:15;;;;;;;5.60;3.23;;;;;;;;;;10496053;28;20576;-69
2024/01/20 19:33:15;;;;;;;8.50;4.30;;;;;;;;;;10499660;28;20320;-68
2024/01/20 19:38:16;;;;;;;16.80;7.40;;;;;;;;;;10498439;28;20340;-68
2024/01/20 19:43:16;;;;;;;8.10;5.50;;;;;;;;;;10498266;28;20198;-68
2024/01/20 19:48:16;;;;;;;10.33;5.90;;;;;;;;;;10497535;28;20311;-69
2024/01/20 19:53:16;;;;;;;9.97;5.47;;;;;;;;;;10497883;28;20206;-68
2024/01/20 19:58:17;;;;;;;33.63;15.00;;;;;;;;;;10497562;28;20207;-69
2024/01/20 20:03:17;;;;;;;11.07;6.43;;;;;;;;;;10497366;28;20201;-68
2024/01/20 20:08:22;;;;;;;18.43;8.57;;;;;;;;;;10497058;28;20571;-68
2024/01/20 20:13:25;;;;;;;7.30;5.03;;;;;;;;;;10496907;28;20445;-67
2024/01/20 20:18:27;;;;;;;6.53;4.00;;;;;;;;;;10495732;28;20221;-68
2024/01/20 20:23:27;;;;;;;26.27;15.97;;;;;;;;;;10496537;28;20190;-67
2024/01/20 20:28:27;;;;;;;8.57;3.93;;;;;;;;;;10496350;28;20228;-67
2024/01/20 20:33:27;;;;;;;6.60;4.30;;;;;;;;;;10496186;28;20193;-67
2024/01/20 20:38:27;;;;;;;49.00;24.40;;;;;;;;;;10495681;28;20210;-67
2024/01/20 20:43:28;;;;;;;45.83;22.67;;;;;;;;;;10495691;28;20182;-67
2024/01/20 20:48:30;;;;;;;7.03;3.90;;;;;;;;;;10494791;28;20238;-67
2024/01/20 20:53:30;;;;;;;4.73;2.97;;;;;;;;;;10495286;28;20290;-67
2024/01/20 20:58:30;;;;;;;13.17;6.73;;;;;;;;;;10493514;28;20222;-68
2024/01/20 21:03:30;;;;;;;10.27;4.67;;;;;;;;;;10493465;28;20249;-68
2024/01/20 21:08:31;;;;;;;9.30;4.93;;;;;;;;;;10494078;28;20318;-68
2024/01/20 21:13:31;;;;;;;23.13;6.90;;;;;;;;;;10494219;28;20258;-68
2024/01/20 21:18:31;;;;;;;25.97;7.60;;;;;;;;;;10493682;28;20217;-68
2024/01/20 21:23:32;;;;;;;22.70;7.37;;;;;;;;;;10493779;28;20224;-68
2024/01/20 21:28:32;;;;;;;7.80;3.90;;;;;;;;;;10493053;28;20225;-67
2024/01/20 21:33:32;;;;;;;10.97;5.73;;;;;;;;;;10493320;28;20668;-68
2024/01/20 21:38:32;;;;;;;8.23;5.20;;;;;;;;;;10492971;28;20205;-68
2024/01/20 21:43:33;;;;;;;4.97;3.57;;;;;;;;;;10492688;28;20924;-68
2024/01/20 21:48:33;;;;;;;3.20;2.27;;;;;;;;;;10492592;28;20759;-68
2024/01/20 21:53:33;;;;;;;2.00;1.80;;;;;;;;;;10492078;28;20683;-68
2024/01/20 21:58:33;;;;;;;4.40;3.00;;;;;;;;;;10492509;28;20561;-67
2024/01/20 22:03:33;;;;;;;4.93;3.33;;;;;;;;;;10491928;28;20192;-68
2024/01/20 22:08:34;;;;;;;6.30;2.90;;;;;;;;;;10491567;28;20222;-68
2024/01/20 22:13:34;;;;;;;3.03;1.93;;;;;;;;;;10492302;28;20249;-68
2024/01/20 22:18:34;;;;;;;4.60;2.40;;;;;;;;;;10491731;28;20240;-67
2024/01/20 22:23:34;;;;;;;4.23;2.50;;;;;;;;;;10492134;28;20724;-68
2024/01/20 22:28:34;;;;;;;6.13;2.40;;;;;;;;;;10491580;28;20237;-68
2024/01/20 22:33:35;;;;;;;3.10;2.00;;;;;;;;;;10491883;28;20223;-68
2024/01/20 22:38:35;;;;;;;2.40;2.20;;;;;;;;;;10491406;28;20939;-67
2024/01/20 22:43:36;;;;;;;2.90;2.20;;;;;;;;;;10491031;28;20442;-67
2024/01/20 22:48:37;;;;;;;3.43;2.50;;;;;;;;;;10490948;28;20239;-67
2024/01/20 22:53:37;;;;;;;1.50;1.40;;;;;;;;;;10491160;28;20205;-67
2024/01/20 22:58:37;;;;;;;2.03;1.67;;;;;;;;;;10491381;28;20459;-67
2024/01/20 23:03:38;;;;;;;2.43;1.63;;;;;;;;;;10491133;28;20194;-67
2024/01/20 23:08:39;;;;;;;3.60;1.83;;;;;;;;;;10490912;28;20224;-67
2024/01/20 23:13:39;;;;;;;2.17;1.87;;;;;;;;;;10490875;28;20611;-67
2024/01/20 23:18:39;;;;;;;2.57;1.53;;;;;;;;;;10490690;28;20211;-67
2024/01/20 23:23:39;;;;;;;1.50;1.40;;;;;;;;;;10490370;28;20441;-67
2024/01/20 23:28:40;;;;;;;1.83;1.50;;;;;;;;;;10490221;28;20219;-67
2024/01/20 23:33:40;;;;;;;2.93;1.73;;;;;;;;;;10490895;28;20195;-67
2024/01/20 23:38:40;;;;;;;2.27;2.00;;;;;;;;;;10489570;28;20211;-67
2024/01/20 23:43:41;;;;;;;2.17;1.50;;;;;;;;;;10490313;28;20441;-67
2024/01/20 23:48:41;;;;;;;3.17;1.77;;;;;;;;;;10489644;28;20488;-67
2024/01/20 23:53:42;;;;;;;1.57;1.47;;;;;;;;;;10494376;28;20695;-68
2024/01/20 23:58:42;;;;;;;2.50;1.83;;;;;;;;;;10497626;28;20792;-68
